Webcam Flughafen St.Gallen-Altenrhein

Live-Bilder und Zeitraffer LSZR / ACH.

 

Live aus Altenrhein
LIVE
LSZR 012250Z AUTO VRB01KT 6000 NCD M00/M00 Q1030
Zeitraffer heute
2021-03-01 00:14:30
LSZR 282250Z AUTO 18001KT CAVOK 01/01 Q1030